Terminal Aerodrome Forecast
Issued by NWS Grand Forks, ND

Home | Current Version | Previous Version | Text Only | Print | Product List | Glossary Off
Versions: 1 2 3 4 5 6 7 8 9 10 11 12

503
FTUS43 KFGF 131132
TAFGFK
TAF
KGFK 131132Z 1312/1412 18008KT P6SM SKC
     FM131700 17013G19KT P6SM SCT080
     FM131900 18016G24KT P6SM SCT060
     FM140200 19014KT P6SM FEW250
     FM140900 22009KT P6SM FEW250=

USA.gov is the U.S. government's official web portal to all federal, state and local government web resources and services.